Time;durP1;ratioP1;P1;durP2;ratioP2;P2;SDS_P1;SDS_P2;PMS_P1;PMS_P2;Temp;Humidity;BMP_temperature;BMP_pressure;BME280_temperature;BME280_humidity;BME280_pressure;Samples;Min_cycle;Max_cycle;Signal;HPM_P1;HPM_P2
2022/03/01 00:00:04;;;;;;;21.25;12.95;;;6.20;99.90;;;;;;5061484;28;20092;-79
2022/03/01 00:02:30;;;;;;;22.45;13.90;;;6.20;99.90;;;;;;5060556;28;20040;-79
2022/03/01 00:04:56;;;;;;;22.83;10.57;;;6.10;99.90;;;;;;5061307;28;20020;-79
2022/03/01 00:07:22;;;;;;;17.90;11.38;;;6.10;99.90;;;;;;5060988;28;20023;-79
2022/03/01 00:09:47;;;;;;;16.75;10.05;;;6.10;99.90;;;;;;5079249;28;20445;-79
2022/03/01 00:12:13;;;;;;;21.50;13.00;;;6.10;99.90;;;;;;5061083;28;20016;-79
2022/03/01 00:14:39;;;;;;;19.65;13.40;;;6.00;99.90;;;;;;5079136;28;20027;-79
2022/03/01 00:17:05;;;;;;;26.85;15.73;;;6.00;99.90;;;;;;5061169;28;20455;-79
2022/03/01 00:19:31;;;;;;;20.90;15.18;;;6.00;99.90;;;;;;5079143;28;20029;-79
2022/03/01 00:21:58;;;;;;;19.13;13.43;;;6.00;99.90;;;;;;5078980;28;20089;-79
2022/03/01 00:24:24;;;;;;;22.80;13.95;;;5.90;99.90;;;;;;5060815;28;20556;-79
2022/03/01 00:26:50;;;;;;;21.98;14.50;;;5.90;99.90;;;;;;5078587;28;20028;-79
2022/03/01 00:29:17;;;;;;;29.75;21.65;;;5.80;99.90;;;;;;5079110;28;20059;-79
2022/03/01 00:31:43;;;;;;;25.33;18.48;;;5.80;99.90;;;;;;5078801;28;20210;-79
2022/03/01 00:34:08;;;;;;;22.58;17.13;;;5.70;99.90;;;;;;5077508;28;20048;-78
2022/03/01 00:36:36;;;;;;;26.48;17.05;;;5.60;99.90;;;;;;5078643;28;20150;-79
2022/03/01 00:39:04;;;;;;;22.48;15.45;;;5.60;99.90;;;;;;5078457;28;20505;-79
2022/03/01 00:41:30;;;;;;;23.35;19.02;;;5.60;99.90;;;;;;5060824;28;20154;-79
2022/03/01 00:43:56;;;;;;;29.30;16.88;;;5.60;99.90;;;;;;5078780;28;20032;-79
2022/03/01 00:46:23;;;;;;;25.88;16.95;;;5.70;99.90;;;;;;5078506;28;20031;-79
2022/03/01 00:48:49;;;;;;;30.33;17.73;;;5.60;99.90;;;;;;5078676;28;20024;-78
2022/03/01 00:51:15;;;;;;;26.08;17.63;;;5.60;99.90;;;;;;5078444;28;20021;-79
2022/03/01 00:53:41;;;;;;;25.08;17.10;;;5.50;99.90;;;;;;5060233;28;20023;-80
2022/03/01 00:56:07;;;;;;;30.95;17.95;;;5.50;99.90;;;;;;5078324;28;20085;-79
2022/03/01 00:58:32;;;;;;;27.13;17.83;;;5.40;99.90;;;;;;5060539;28;20025;-79
2022/03/01 01:00:58;;;;;;;28.52;18.55;;;5.40;99.90;;;;;;5060286;28;20439;-79
2022/03/01 01:03:24;;;;;;;27.02;18.77;;;5.30;99.90;;;;;;5078621;28;20114;-79
2022/03/01 01:05:50;;;;;;;30.08;18.95;;;5.20;99.90;;;;;;5077977;28;20056;-79
2022/03/01 01:08:16;;;;;;;25.85;17.73;;;5.20;99.90;;;;;;5078156;28;20477;-79
2022/03/01 01:10:41;;;;;;;29.83;18.10;;;5.20;99.90;;;;;;5077884;28;20017;-80
2022/03/01 01:13:07;;;;;;;26.20;16.42;;;5.10;99.90;;;;;;5059407;28;20021;-80
2022/03/01 01:15:33;;;;;;;24.95;16.52;;;5.10;99.90;;;;;;5059899;28;20505;-79
2022/03/01 01:17:59;;;;;;;28.92;17.85;;;5.10;99.90;;;;;;5078130;28;20039;-80
2022/03/01 01:20:25;;;;;;;28.10;19.50;;;5.10;99.90;;;;;;5077654;28;20107;-80
2022/03/01 01:22:52;;;;;;;29.58;17.65;;;5.10;99.90;;;;;;5059983;28;20025;-78
2022/03/01 01:25:21;;;;;;;21.92;16.33;;;5.10;99.90;;;;;;5077709;28;20103;-79
2022/03/01 01:27:51;;;;;;;25.13;18.23;;;5.00;99.90;;;;;;5059830;28;20500;-78
2022/03/01 01:30:21;;;;;;;29.25;18.25;;;5.00;99.90;;;;;;5059687;28;20021;-79
2022/03/01 01:32:48;;;;;;;27.00;17.35;;;5.00;99.90;;;;;;5059763;28;20100;-79
2022/03/01 01:35:16;;;;;;;28.85;18.13;;;5.00;99.90;;;;;;5059418;28;20028;-79
2022/03/01 01:37:43;;;;;;;26.33;17.17;;;5.00;99.90;;;;;;5059238;28;20034;-79
2022/03/01 01:40:12;;;;;;;22.48;15.27;;;5.00;99.90;;;;;;5059441;28;20028;-79
2022/03/01 01:42:39;;;;;;;25.65;16.15;;;4.90;99.90;;;;;;5077474;28;20482;-78
2022/03/01 01:45:06;;;;;;;23.48;16.50;;;4.90;99.90;;;;;;5076949;28;20404;-79
2022/03/01 01:47:32;;;;;;;26.52;17.00;;;4.90;99.90;;;;;;5077584;28;20070;-79
2022/03/01 01:49:58;;;;;;;26.92;18.73;;;4.90;99.90;;;;;;5077474;28;20031;-79
2022/03/01 01:52:25;;;;;;;30.92;16.80;;;4.90;99.90;;;;;;5077053;28;20024;-79
2022/03/01 01:54:54;;;;;;;24.58;17.85;;;4.90;99.90;;;;;;5077432;28;20023;-79
2022/03/01 01:57:21;;;;;;;29.30;17.05;;;4.90;99.90;;;;;;5076219;28;20020;-79
2022/03/01 01:59:50;;;;;;;26.33;18.65;;;4.90;99.90;;;;;;5077290;28;20048;-79
2022/03/01 02:02:18;;;;;;;29.77;17.27;;;4.80;99.90;;;;;;5077283;28;20017;-79
2022/03/01 02:04:44;;;;;;;23.75;16.77;;;4.80;99.90;;;;;;5077283;28;20088;-79
2022/03/01 02:07:11;;;;;;;29.42;16.30;;;4.80;99.90;;;;;;5059048;28;20031;-79
2022/03/01 02:09:38;;;;;;;23.85;17.05;;;4.80;99.90;;;;;;5077389;28;20017;-79
2022/03/01 02:12:04;;;;;;;23.45;16.65;;;4.70;99.90;;;;;;5077470;28;20021;-79
2022/03/01 02:14:31;;;;;;;27.30;17.30;;;4.70;99.90;;;;;;5058878;28;20025;-79
2022/03/01 02:16:59;;;;;;;34.38;19.50;;;4.70;99.90;;;;;;5077220;28;20028;-79
2022/03/01 02:19:25;;;;;;;23.05;17.88;;;4.70;99.90;;;;;;5077093;28;20059;-79
2022/03/01 02:21:56;;;;;;;29.85;17.27;;;4.70;99.90;;;;;;5077068;28;20100;-79
2022/03/01 02:24:25;;;;;;;28.92;17.83;;;4.60;99.90;;;;;;5076814;28;20033;-80
2022/03/01 02:27:02;;;;;;;31.65;19.92;;;4.60;99.90;;;;;;5058933;28;20070;-79
2022/03/01 02:29:28;;;;;;;27.23;16.55;;;4.60;99.90;;;;;;5059430;28;20462;-80
2022/03/01 02:31:57;;;;;;;26.25;16.27;;;4.60;99.90;;;;;;5058884;28;20107;-80
2022/03/01 02:34:23;;;;;;;25.88;17.30;;;4.60;99.90;;;;;;5077282;28;20040;-80
2022/03/01 02:36:50;;;;;;;29.65;16.42;;;4.60;99.90;;;;;;5059840;28;20028;-80
2022/03/01 02:39:16;;;;;;;22.73;15.27;;;4.60;99.90;;;;;;5079416;28;20048;-80
2022/03/01 02:41:44;;;;;;;21.33;16.65;;;4.60;99.90;;;;;;5061746;28;20016;-79
2022/03/01 02:44:10;;;;;;;24.27;16.20;;;4.50;99.90;;;;;;5079900;28;20041;-79
2022/03/01 02:46:37;;;;;;;29.08;18.13;;;4.50;99.90;;;;;;5076815;28;20021;-79
2022/03/01 02:49:06;;;;;;;24.52;15.55;;;4.50;99.90;;;;;;5079602;28;20024;-79
2022/03/01 02:51:32;;;;;;;27.63;17.08;;;4.50;99.90;;;;;;5080102;28;20085;-79
2022/03/01 02:53:58;;;;;;;24.65;17.05;;;4.40;99.90;;;;;;5079551;28;20024;-80
2022/03/01 02:56:24;;;;;;;32.65;17.15;;;4.40;99.90;;;;;;5079805;28;20028;-80
2022/03/01 02:58:50;;;;;;;25.02;16.10;;;4.40;99.90;;;;;;5082988;28;20135;-80
2022/03/01 03:01:16;;;;;;;28.80;17.38;;;4.30;99.90;;;;;;5083400;28;20048;-80
2022/03/01 03:03:42;;;;;;;27.33;16.85;;;4.30;99.90;;;;;;5065287;28;20492;-80
2022/03/01 03:06:08;;;;;;;24.08;16.20;;;4.30;99.90;;;;;;5064528;28;20020;-80
2022/03/01 03:08:34;;;;;;;27.67;18.42;;;4.30;99.90;;;;;;5062504;28;20519;-80
2022/03/01 03:11:00;;;;;;;26.83;17.33;;;4.30;99.90;;;;;;5062463;28;20032;-80
2022/03/01 03:13:26;;;;;;;28.65;17.48;;;4.30;99.90;;;;;;5062365;28;20085;-80
2022/03/01 03:15:52;;;;;;;25.42;17.98;;;4.30;99.90;;;;;;5080057;28;20089;-80
2022/03/01 03:18:18;;;;;;;30.33;19.50;;;4.30;99.90;;;;;;5061203;28;20066;-80
2022/03/01 03:20:44;;;;;;;30.10;18.33;;;4.30;99.90;;;;;;5061338;28;20377;-80
2022/03/01 03:23:11;;;;;;;27.10;18.42;;;4.20;99.90;;;;;;5061419;28;20041;-80
2022/03/01 03:25:37;;;;;;;32.10;19.88;;;4.20;99.90;;;;;;5061613;28;20016;-80
2022/03/01 03:28:03;;;;;;;25.73;18.02;;;4.20;99.90;;;;;;5061419;28;20028;-80
2022/03/01 03:30:29;;;;;;;26.35;17.40;;;4.20;99.90;;;;;;5061383;28;20035;-80
2022/03/01 03:32:55;;;;;;;28.17;18.27;;;4.20;99.90;;;;;;5061645;28;20437;-80
2022/03/01 03:35:22;;;;;;;27.90;18.88;;;4.20;99.90;;;;;;5061259;28;20504;-80
2022/03/01 03:37:48;;;;;;;28.95;19.35;;;4.20;99.90;;;;;;5061132;28;20472;-80
2022/03/01 03:40:14;;;;;;;29.50;17.98;;;4.10;99.90;;;;;;5061800;28;20038;-79
2022/03/01 03:42:42;;;;;;;24.60;16.40;;;4.10;99.90;;;;;;5079426;28;20028;-79
2022/03/01 03:45:08;;;;;;;32.13;17.27;;;4.10;99.90;;;;;;5050114;28;20478;-79
2022/03/01 03:47:34;;;;;;;24.58;16.63;;;4.00;99.90;;;;;;5063673;28;20021;-79
2022/03/01 03:50:00;;;;;;;26.73;17.30;;;4.00;99.90;;;;;;5078120;28;20016;-79
2022/03/01 03:52:26;;;;;;;28.17;17.92;;;3.90;99.90;;;;;;5078558;28;20481;-79
2022/03/01 03:54:52;;;;;;;25.05;16.23;;;3.90;99.90;;;;;;5060987;28;20042;-79
2022/03/01 03:57:18;;;;;;;24.00;17.23;;;3.90;99.90;;;;;;5078658;28;20726;-79
2022/03/01 03:59:43;;;;;;;29.13;17.00;;;3.80;99.90;;;;;;5059945;28;20016;-79
2022/03/01 04:02:10;;;;;;;24.27;16.05;;;3.80;99.90;;;;;;5078751;28;20023;-79
2022/03/01 04:04:36;;;;;;;19.10;15.13;;;3.80;99.90;;;;;;5060734;28;20017;-80
2022/03/01 04:07:03;;;;;;;25.13;16.77;;;3.80;99.90;;;;;;5078447;28;20500;-80
2022/03/01 04:09:29;;;;;;;20.73;15.15;;;3.70;99.90;;;;;;5060679;28;20024;-79
2022/03/01 04:11:55;;;;;;;22.67;15.45;;;3.70;99.90;;;;;;5060650;28;20024;-80
2022/03/01 04:14:21;;;;;;;19.98;12.80;;;3.70;99.90;;;;;;5078661;28;20063;-79
2022/03/01 04:16:47;;;;;;;23.70;13.15;;;3.70;99.90;;;;;;5079038;28;20036;-80
2022/03/01 04:19:12;;;;;;;18.38;13.38;;;3.70;99.90;;;;;;5078963;28;20029;-79
2022/03/01 04:21:39;;;;;;;17.70;11.35;;;3.70;99.90;;;;;;5060875;28;20040;-78
2022/03/01 04:24:06;;;;;;;20.65;12.10;;;3.70;99.90;;;;;;5060648;28;20028;-78
2022/03/01 04:26:32;;;;;;;15.57;10.95;;;3.70;99.90;;;;;;5079161;28;20036;-79
2022/03/01 04:28:58;;;;;;;22.02;15.02;;;3.70;99.90;;;;;;5078869;28;20477;-78
2022/03/01 04:31:24;;;;;;;33.97;16.48;;;3.80;99.90;;;;;;5060788;28;20133;-78
2022/03/01 04:33:50;;;;;;;238.68;81.43;;;3.80;99.90;;;;;;5061033;28;20377;-78
2022/03/01 04:36:17;;;;;;;24.55;16.13;;;3.80;99.90;;;;;;5078771;28;20027;-78
2022/03/01 04:38:43;;;;;;;26.50;16.40;;;3.80;99.90;;;;;;5060285;28;20394;-78
2022/03/01 04:41:09;;;;;;;26.65;15.07;;;3.80;99.90;;;;;;5078637;28;20400;-79
2022/03/01 04:43:36;;;;;;;58.95;24.33;;;3.90;99.90;;;;;;5078508;28;20413;-79
2022/03/01 04:46:03;;;;;;;166.48;54.85;;;3.90;99.90;;;;;;5078580;28;20025;-78
2022/03/01 04:48:28;;;;;;;435.63;176.60;;;3.80;99.90;;;;;;5060492;28;20416;-78
2022/03/01 04:50:54;;;;;;;142.52;49.25;;;3.80;99.90;;;;;;5078476;28;20028;-78
2022/03/01 04:53:20;;;;;;;271.63;92.93;;;3.70;99.90;;;;;;5077994;28;20027;-79
2022/03/01 04:55:46;;;;;;;339.13;117.68;;;3.70;99.90;;;;;;5078634;28;20135;-79
2022/03/01 04:58:13;;;;;;;142.27;54.58;;;3.70;99.90;;;;;;5078045;28;20043;-78
2022/03/01 05:00:38;;;;;;;443.20;169.60;;;3.80;99.90;;;;;;5060206;28;20439;-78
2022/03/01 05:03:05;;;;;;;426.83;162.43;;;3.70;99.90;;;;;;5060452;28;20055;-78
2022/03/01 05:05:30;;;;;;;116.18;48.28;;;3.70;99.90;;;;;;5076994;28;20024;-79
2022/03/01 05:07:56;;;;;;;50.78;20.55;;;3.60;99.90;;;;;;5059873;28;20031;-78
2022/03/01 05:10:22;;;;;;;52.22;21.95;;;3.60;99.90;;;;;;5060325;28;20082;-78
2022/03/01 05:12:53;;;;;;;452.40;178.40;;;3.50;99.90;;;;;;5077804;28;20165;-78
2022/03/01 05:15:22;;;;;;;262.13;94.10;;;3.60;99.90;;;;;;5059945;28;20058;-78
2022/03/01 05:17:49;;;;;;;120.45;51.03;;;3.50;99.90;;;;;;5077832;28;20035;-78
2022/03/01 05:20:16;;;;;;;296.50;109.55;;;3.50;99.90;;;;;;5076905;28;20024;-78
2022/03/01 05:22:42;;;;;;;551.83;234.90;;;3.40;99.90;;;;;;5059507;28;20039;-78
2022/03/01 05:25:11;;;;;;;974.03;457.05;;;3.40;99.90;;;;;;5077721;28;20031;-78
2022/03/01 05:27:42;;;;;;;302.02;112.88;;;3.40;99.90;;;;;;5077818;28;20016;-78
2022/03/01 05:30:09;;;;;;;;;;;3.40;99.90;;;;;;5060015;28;20111;-78
2022/03/01 05:32:37;;;;;;;455.70;191.50;;;3.40;99.90;;;;;;5077600;28;19908;-78
2022/03/01 05:35:04;;;;;;;61.88;26.00;;;3.30;99.90;;;;;;5058398;28;20030;-78
2022/03/01 05:37:30;;;;;;;34.90;18.98;;;3.30;99.90;;;;;;5076274;28;20542;-78
2022/03/01 05:39:56;;;;;;;192.77;80.05;;;3.30;99.90;;;;;;5075139;28;20041;-78
2022/03/01 05:42:23;;;;;;;281.55;114.97;;;3.20;99.90;;;;;;5077362;28;20025;-78
2022/03/01 05:44:50;;;;;;;80.63;35.42;;;3.20;99.90;;;;;;5059510;28;20017;-78
2022/03/01 05:47:16;;;;;;;539.28;238.13;;;3.20;99.90;;;;;;5077359;28;20043;-78
2022/03/01 05:49:42;;;;;;;241.43;94.65;;;3.20;99.90;;;;;;5059324;28;20021;-78
2022/03/01 05:52:09;;;;;;;34.83;20.35;;;3.20;99.90;;;;;;5076168;28;20028;-78
2022/03/01 05:54:34;;;;;;;53.63;31.60;;;3.10;99.90;;;;;;5072195;28;20477;-78
2022/03/01 05:57:01;;;;;;;65.65;37.88;;;3.00;99.90;;;;;;5077220;28;20028;-79
2022/03/01 05:59:26;;;;;;;39.92;24.00;;;3.00;99.90;;;;;;5059224;28;20036;-78
2022/03/01 06:01:52;;;;;;;54.50;30.45;;;3.00;99.90;;;;;;5077384;28;20027;-79
2022/03/01 06:04:18;;;;;;;32.97;19.08;;;3.00;99.90;;;;;;5059341;28;20032;-78
2022/03/01 06:06:44;;;;;;;33.25;20.20;;;3.00;99.90;;;;;;5077439;28;20091;-78
2022/03/01 06:09:10;;;;;;;48.42;26.70;;;2.90;99.90;;;;;;5076789;28;20024;-78
2022/03/01 06:11:36;;;;;;;42.75;24.70;;;2.90;99.90;;;;;;5076952;28;20028;-79
2022/03/01 06:14:02;;;;;;;41.70;23.27;;;2.90;99.90;;;;;;5076807;28;20073;-78
2022/03/01 06:16:28;;;;;;;31.88;19.70;;;2.90;99.90;;;;;;5077056;28;20134;-78
2022/03/01 06:18:54;;;;;;;38.55;22.58;;;2.80;99.90;;;;;;5058877;28;20052;-78
2022/03/01 06:21:20;;;;;;;112.78;55.60;;;2.80;99.90;;;;;;5077008;28;20024;-78
2022/03/01 06:23:46;;;;;;;128.98;63.45;;;2.80;99.90;;;;;;5076775;28;20025;-78
2022/03/01 06:26:12;;;;;;;57.83;30.38;;;2.80;99.90;;;;;;5076930;28;20067;-78
2022/03/01 06:28:38;;;;;;;56.53;31.73;;;2.70;99.90;;;;;;5076527;28;20126;-78
2022/03/01 06:31:04;;;;;;;62.80;35.17;;;2.70;99.90;;;;;;5059502;28;20036;-78
2022/03/01 06:33:31;;;;;;;50.97;29.25;;;2.70;99.90;;;;;;5062979;28;20029;-78
2022/03/01 06:35:57;;;;;;;102.38;48.25;;;2.60;99.90;;;;;;5062904;28;20107;-78
2022/03/01 06:38:22;;;;;;;342.58;169.80;;;2.60;99.90;;;;;;5063174;28;20079;-78
2022/03/01 06:40:51;;;;;;;118.45;61.17;;;2.60;99.90;;;;;;5080910;28;20073;-78
2022/03/01 06:43:18;;;;;;;39.97;22.75;;;2.60;99.90;;;;;;5080729;28;20385;-78
2022/03/01 06:45:43;;;;;;;55.28;31.83;;;2.60;99.90;;;;;;5080791;28;20028;-78
2022/03/01 06:48:09;;;;;;;249.13;125.00;;;2.60;99.90;;;;;;5080942;28;20495;-78
2022/03/01 06:50:35;;;;;;;171.57;86.60;;;2.60;99.90;;;;;;5080233;28;20017;-78
2022/03/01 06:53:01;;;;;;;54.80;31.23;;;2.60;99.90;;;;;;5079972;28;20111;-77
2022/03/01 06:55:27;;;;;;;125.18;64.43;;;2.60;99.90;;;;;;5062826;28;20074;-78
2022/03/01 06:57:55;;;;;;;205.77;94.70;;;2.70;99.90;;;;;;5080792;28;20029;-78
2022/03/01 07:00:21;;;;;;;68.13;39.90;;;2.70;99.90;;;;;;5062689;28;20027;-78
2022/03/01 07:02:46;;;;;;;94.97;48.03;;;2.70;99.90;;;;;;5079553;28;20020;-77
2022/03/01 07:05:14;;;;;;;59.63;31.67;;;2.80;99.90;;;;;;5062327;28;20052;-77
2022/03/01 07:07:41;;;;;;;45.67;24.45;;;2.90;99.90;;;;;;5080201;28;20029;-77
2022/03/01 07:10:11;;;;;;;99.20;50.47;;;3.00;99.90;;;;;;5062322;28;20088;-78
2022/03/01 07:12:37;;;;;;;71.00;36.87;;;3.00;99.90;;;;;;5062171;28;20029;-77
2022/03/01 07:15:04;;;;;;;271.63;117.72;;;3.10;99.90;;;;;;5080207;28;20032;-78
2022/03/01 07:17:31;;;;;;;205.38;94.45;;;3.10;99.90;;;;;;5080129;28;20017;-78
2022/03/01 07:19:57;;;;;;;472.35;237.90;;;3.20;99.90;;;;;;5080055;28;20021;-78
2022/03/01 07:22:23;;;;;;;314.08;134.18;;;3.30;99.90;;;;;;5061300;28;20027;-78
2022/03/01 07:24:49;;;;;;;386.40;162.50;;;3.40;99.90;;;;;;5079891;28;20028;-78
2022/03/01 07:27:14;;;;;;;363.70;155.70;;;3.40;99.90;;;;;;5079753;28;20027;-78
2022/03/01 07:29:40;;;;;;;326.00;135.70;;;3.40;99.90;;;;;;5080334;28;20051;-77
2022/03/01 07:32:07;;;;;;;269.17;116.47;;;3.50;99.90;;;;;;5062030;28;20104;-77
2022/03/01 07:34:33;;;;;;;201.20;86.93;;;3.60;99.90;;;;;;5079855;28;20419;-76
2022/03/01 07:37:00;;;;;;;277.00;118.22;;;3.60;99.90;;;;;;5061027;28;20025;-77
2022/03/01 07:39:26;;;;;;;587.65;267.75;;;3.70;99.90;;;;;;5060169;28;20055;-78
2022/03/01 07:41:52;;;;;;;359.27;134.80;;;3.70;99.90;;;;;;5078492;28;20028;-77
2022/03/01 07:44:18;;;;;;;280.35;104.43;;;3.80;99.90;;;;;;5078880;28;20024;-78
2022/03/01 07:46:45;;;;;;;165.43;62.38;;;3.90;99.90;;;;;;5078298;28;20025;-78
2022/03/01 07:49:10;;;;;;;235.65;89.03;;;4.00;99.90;;;;;;5078837;28;20036;-78
2022/03/01 07:51:36;;;;;;;107.35;45.05;;;4.10;99.90;;;;;;5078845;28;20016;-78
2022/03/01 07:54:03;;;;;;;332.27;132.70;;;4.20;99.90;;;;;;5061216;28;20036;-78
2022/03/01 07:56:29;;;;;;;117.47;56.53;;;4.30;99.90;;;;;;5079185;28;20431;-78
2022/03/01 07:58:55;;;;;;;53.35;28.02;;;4.40;99.90;;;;;;5079578;28;20143;-79
2022/03/01 08:01:22;;;;;;;27.80;16.10;;;4.50;99.90;;;;;;5079076;28;20056;-79
2022/03/01 08:03:49;;;;;;;22.65;16.10;;;4.60;99.90;;;;;;5078845;28;20546;-79
2022/03/01 08:06:15;;;;;;;24.85;14.70;;;4.70;99.90;;;;;;5078017;28;20074;-79
2022/03/01 08:08:41;;;;;;;18.80;13.65;;;4.80;99.90;;;;;;5079160;28;20028;-79
2022/03/01 08:11:07;;;;;;;23.88;13.32;;;4.90;99.90;;;;;;5079169;28;20091;-79
2022/03/01 08:13:34;;;;;;;20.83;13.80;;;5.10;99.90;;;;;;5061256;28;20024;-79
2022/03/01 08:16:02;;;;;;;24.88;13.32;;;5.30;99.90;;;;;;5079393;28;20074;-80
2022/03/01 08:18:28;;;;;;;24.20;13.75;;;5.30;99.90;;;;;;5078576;28;20036;-79
2022/03/01 08:20:54;;;;;;;24.52;14.10;;;5.40;99.90;;;;;;5078222;28;20072;-79
2022/03/01 08:23:20;;;;;;;22.52;13.35;;;5.50;99.90;;;;;;5078799;28;20501;-79
2022/03/01 08:25:46;;;;;;;20.33;13.27;;;5.60;99.90;;;;;;5078766;28;20024;-79
2022/03/01 08:28:13;;;;;;;20.05;14.07;;;5.70;99.90;;;;;;5078667;28;20473;-79
2022/03/01 08:30:39;;;;;;;15.65;11.88;;;5.90;99.90;;;;;;5059492;28;20035;-78
2022/03/01 08:33:05;;;;;;;20.80;12.48;;;6.00;99.90;;;;;;5060339;28;20033;-78
2022/03/01 08:35:34;;;;;;;24.75;13.60;;;6.10;99.90;;;;;;5078398;28;20022;-79
2022/03/01 08:38:02;;;;;;;23.33;12.73;;;6.20;99.90;;;;;;5077141;28;20059;-78
2022/03/01 08:40:32;;;;;;;17.63;12.05;;;6.30;99.90;;;;;;5073478;28;20035;-79
2022/03/01 08:42:58;;;;;;;24.88;13.32;;;6.40;99.90;;;;;;5077037;28;20052;-78
2022/03/01 08:45:24;;;;;;;24.00;12.98;;;6.50;99.90;;;;;;5075114;28;20074;-79
2022/03/01 08:47:51;;;;;;;17.15;12.18;;;6.70;99.90;;;;;;5076354;28;20024;-79
2022/03/01 08:50:17;;;;;;;20.08;12.23;;;6.80;99.90;;;;;;5060368;28;20385;-78
2022/03/01 08:52:43;;;;;;;20.70;11.38;;;7.00;99.90;;;;;;5059586;28;20025;-78
2022/03/01 08:55:10;;;;;;;26.67;11.55;;;7.10;99.90;;;;;;5076727;28;20021;-79
2022/03/01 08:57:36;;;;;;;20.38;11.68;;;7.20;99.90;;;;;;5059802;28;20035;-79
2022/03/01 09:00:08;;;;;;;13.95;10.32;;;7.40;99.90;;;;;;5059927;28;20125;-79
2022/03/01 09:02:34;;;;;;;18.40;11.05;;;7.40;99.90;;;;;;5059495;28;20029;-79
2022/03/01 09:05:00;;;;;;;16.00;10.20;;;7.50;99.90;;;;;;5073544;28;20032;-78
2022/03/01 09:07:26;;;;;;;14.82;10.90;;;7.60;99.90;;;;;;5077500;28;20032;-78
2022/03/01 09:09:53;;;;;;;18.50;9.65;;;7.70;99.90;;;;;;5077423;28;20013;-79
2022/03/01 09:12:19;;;;;;;14.73;9.48;;;7.80;99.90;;;;;;5077749;28;20565;-79
2022/03/01 09:14:45;;;;;;;14.57;10.32;;;7.90;99.90;;;;;;5077552;28;20025;-78
2022/03/01 09:17:11;;;;;;;18.08;9.02;;;8.10;99.90;;;;;;5059973;28;20081;-79
2022/03/01 09:19:37;;;;;;;12.93;8.82;;;8.20;99.90;;;;;;5059557;28;20054;-79
2022/03/01 09:22:03;;;;;;;13.82;8.73;;;8.30;99.90;;;;;;5059915;28;20417;-79
2022/03/01 09:24:29;;;;;;;16.90;8.70;;;8.40;99.90;;;;;;5055836;28;20032;-79
2022/03/01 09:27:00;;;;;;;15.50;9.90;;;8.60;99.90;;;;;;5058605;28;20100;-78
2022/03/01 09:29:28;;;;;;;14.85;7.82;;;8.80;99.90;;;;;;5055947;28;20031;-79
2022/03/01 09:31:54;;;;;;;15.55;9.18;;;9.00;99.90;;;;;;5076531;28;20028;-79
2022/03/01 09:34:20;;;;;;;13.07;7.88;;;9.10;99.90;;;;;;5077721;28;20492;-79
2022/03/01 09:36:45;;;;;;;14.32;9.00;;;9.20;99.90;;;;;;5076906;28;20447;-79
2022/03/01 09:39:12;;;;;;;21.30;8.25;;;9.30;99.90;;;;;;5077440;28;20102;-79
2022/03/01 09:41:38;;;;;;;17.05;9.80;;;9.40;99.90;;;;;;5077399;28;20039;-79
2022/03/01 09:44:05;;;;;;;13.15;7.18;;;9.50;99.90;;;;;;5059654;28;20052;-79
2022/03/01 09:46:31;;;;;;;12.73;7.32;;;9.70;99.90;;;;;;5077005;28;20028;-79
2022/03/01 09:48:57;;;;;;;13.18;6.95;;;9.80;99.90;;;;;;5059398;28;20078;-78
2022/03/01 09:51:25;;;;;;;12.93;7.68;;;9.90;99.90;;;;;;5077409;28;20020;-79
2022/03/01 09:53:52;;;;;;;14.52;7.82;;;10.10;99.90;;;;;;5077062;28;20050;-81
2022/03/01 09:56:18;;;;;;;18.88;7.35;;;10.20;99.90;;;;;;5059180;28;20067;-79
2022/03/01 09:58:49;;;;;;;11.98;6.65;;;10.30;99.90;;;;;;5077588;28;20065;-81
2022/03/01 10:01:16;;;;;;;10.80;6.68;;;10.50;99.90;;;;;;5059250;28;20036;-79
2022/03/01 10:03:48;;;;;;;12.30;6.88;;;10.70;99.90;;;;;;5077011;28;20107;-81
2022/03/01 10:06:16;;;;;;;11.68;7.47;;;10.80;99.90;;;;;;5058528;28;20028;-81
2022/03/01 10:08:42;;;;;;;12.15;8.05;;;11.00;99.90;;;;;;5057958;28;20084;-82
2022/03/01 10:11:09;;;;;;;14.32;7.45;;;11.20;99.90;;;;;;5077275;28;20028;-81
2022/03/01 10:13:40;;;;;;;18.05;8.23;;;11.30;99.90;;;;;;5059126;28;20016;-80
2022/03/01 10:16:09;;;;;;;18.88;8.05;;;11.40;99.90;;;;;;5077350;28;20024;-78
2022/03/01 10:18:38;;;;;;;11.13;7.30;;;11.50;99.90;;;;;;5077339;28;20374;-78
2022/03/01 10:21:12;;;;;;;11.68;7.18;;;11.50;99.90;;;;;;5069451;28;20563;-78
2022/03/01 10:23:44;;;;;;;14.00;7.15;;;11.50;99.90;;;;;;5057765;28;20081;-78
2022/03/01 10:26:31;;;;;;;10.48;7.03;;;11.50;99.90;;;;;;5074671;28;20617;-78
2022/03/01 10:28:58;;;;;;;10.85;6.93;;;11.60;99.90;;;;;;5058095;28;20017;-77
2022/03/01 10:31:26;;;;;;;14.90;7.38;;;11.70;99.90;;;;;;5059460;28;20029;-80
2022/03/01 10:34:03;;;;;;;13.20;5.47;;;11.90;99.90;;;;;;5059208;28;20020;-84
2022/03/01 10:36:34;;;;;;;11.88;5.70;;;12.10;99.90;;;;;;5077004;28;20028;-79
2022/03/01 10:39:07;;;;;;;7.40;4.55;;;12.20;99.90;;;;;;5058532;28;20456;-81
2022/03/01 10:41:40;;;;;;;19.60;6.10;;;12.30;99.90;;;;;;5058903;28;20044;-80
2022/03/01 10:44:11;;;;;;;10.95;4.38;;;12.40;99.90;;;;;;5058855;28;20462;-82
2022/03/01 10:46:40;;;;;;;12.80;6.38;;;12.50;99.90;;;;;;5076413;28;20028;-78
2022/03/01 10:49:10;;;;;;;10.27;5.30;;;12.50;99.90;;;;;;5076421;28;20028;-80
2022/03/01 10:51:58;;;;;;;14.02;5.63;;;12.60;99.90;;;;;;5053405;28;20098;-81
2022/03/01 10:54:35;;;;;;;12.32;5.63;;;12.70;99.90;;;;;;5056538;28;20102;-79
2022/03/01 10:57:04;;;;;;;10.50;4.63;;;12.70;99.90;;;;;;5060045;28;20520;-79
2022/03/01 10:59:32;;;;;;;12.13;5.28;;;12.80;99.90;;;;;;5058536;28;20025;-80
2022/03/01 11:01:59;;;;;;;7.53;3.95;;;12.90;99.90;;;;;;5058579;28;20397;-78
2022/03/01 11:04:26;;;;;;;20.00;5.97;;;13.00;99.90;;;;;;5058354;28;20033;-76
2022/03/01 11:06:58;;;;;;;9.38;5.22;;;13.10;99.90;;;;;;5074840;28;20154;-78
2022/03/01 11:09:27;;;;;;;10.27;5.53;;;13.10;99.90;;;;;;5075229;28;20017;-77
2022/03/01 11:11:54;;;;;;;12.63;4.93;;;13.10;99.90;;;;;;5055819;28;20481;-78
2022/03/01 11:14:27;;;;;;;12.32;5.30;;;13.20;99.90;;;;;;5077065;28;20491;-78
2022/03/01 11:17:16;;;;;;;11.07;4.20;;;13.20;99.90;;;;;;5077917;28;20082;-78
2022/03/01 11:20:14;;;;;;;13.27;5.65;;;13.40;99.90;;;;;;5079692;28;20020;-79
2022/03/01 11:22:56;;;;;;;9.82;5.13;;;13.50;99.90;;;;;;5080012;28;20039;-79
2022/03/01 11:25:29;;;;;;;16.67;4.88;;;13.50;99.90;;;;;;5062095;28;20062;-78
2022/03/01 11:28:09;;;;;;;10.90;5.07;;;13.50;99.90;;;;;;5080760;28;20024;-78
2022/03/01 11:30:52;;;;;;;11.52;4.10;;;13.60;99.90;;;;;;5080803;28;20035;-78
2022/03/01 11:33:35;;;;;;;11.50;4.30;;;13.60;99.90;;;;;;5062401;28;20028;-78
2022/03/01 11:36:03;;;;;;;13.25;4.25;;;13.60;99.90;;;;;;5080007;28;20084;-78
2022/03/01 11:38:32;;;;;;;10.30;5.07;;;13.60;99.90;;;;;;5079458;28;20075;-79
2022/03/01 11:41:19;;;;;;;14.30;3.38;;;13.60;99.90;;;;;;5079830;28;20029;-78
2022/03/01 11:43:59;;;;;;;9.80;4.60;;;13.60;99.90;;;;;;5062957;28;20021;-78
2022/03/01 11:46:25;;;;;;;10.40;3.92;;;13.60;99.90;;;;;;5061950;28;20032;-78
2022/03/01 11:48:57;;;;;;;27.17;5.03;;;13.70;99.90;;;;;;5079752;28;20021;-79
2022/03/01 11:51:34;;;;;;;9.18;4.32;;;13.70;99.90;;;;;;5061660;28;20024;-77
2022/03/01 11:54:26;;;;;;;8.75;4.25;;;13.80;99.90;;;;;;5079380;28;20069;-77
2022/03/01 11:56:54;;;;;;;7.07;3.97;;;13.80;99.90;;;;;;5068712;28;20045;-78
2022/03/01 11:59:21;;;;;;;7.18;3.30;;;13.90;99.90;;;;;;5078883;28;20032;-78
2022/03/01 12:01:47;;;;;;;11.07;4.10;;;14.00;99.90;;;;;;5078423;28;20076;-79
2022/03/01 12:04:18;;;;;;;6.60;3.15;;;14.00;99.90;;;;;;5079288;28;20031;-78
2022/03/01 12:06:45;;;;;;;8.02;4.40;;;14.00;99.90;;;;;;5060783;28;20079;-78
2022/03/01 12:09:11;;;;;;;9.05;3.17;;;14.10;99.90;;;;;;5079310;28;20013;-78
2022/03/01 12:11:45;;;;;;;11.43;4.22;;;14.10;99.90;;;;;;5061553;28;20503;-79
2022/03/01 12:14:17;;;;;;;6.55;2.83;;;14.10;99.90;;;;;;5061279;28;20090;-79
2022/03/01 12:16:44;;;;;;;8.52;3.42;;;14.10;99.90;;;;;;5061229;28;20028;-78
2022/03/01 12:19:19;;;;;;;6.95;3.03;;;14.10;99.90;;;;;;5061077;28;20032;-81
2022/03/01 12:21:58;;;;;;;7.05;3.05;;;14.10;99.90;;;;;;5078807;28;20092;-79
2022/03/01 12:24:26;;;;;;;15.55;3.45;;;14.10;99.90;;;;;;5079329;28;20021;-79
2022/03/01 12:26:58;;;;;;;10.07;3.35;;;14.10;99.90;;;;;;5078785;28;20025;-79
2022/03/01 12:29:26;;;;;;;11.43;4.93;;;14.10;99.90;;;;;;5078748;28;20016;-80
2022/03/01 12:32:07;;;;;;;12.63;3.78;;;14.10;99.90;;;;;;5048637;28;20021;-77
2022/03/01 12:34:35;;;;;;;6.85;3.10;;;14.10;99.90;;;;;;5059651;28;20035;-79
2022/03/01 12:37:05;;;;;;;9.00;4.07;;;14.10;99.90;;;;;;5077920;28;20127;-78